Latest Weather Observations for Sellicks Hill

IDS60801

Issued at 9:35 pm CST Saturday 19 April 2014 (issued every 30 minutes, with the page automatically refreshed every 10 minutes)

About weather observations | Map of weather stations | Latest weather observations for SA | Other Formats
Station Details ID: 023886 Name: MOUNT TERRIBLE RADAR Lat: -35.33 Lon: 138.50 Height: 385.7 m
Data from the previous 72 hours. | See also: Recent months for locations in South Australia
Date/Time
CST
Temp
°C
App
Temp
°C
Dew
Point
Rel
Hum
%
Delta-T
°C
Wind Press
QNH
hPa
Press
MSL
hPa
Rain
since 9 am
mm
Dir
 
Spd
km/h
Gust
km/h
Spd
kts
Gust
kts
19/09:30pm - - - - - E 0 4 0 2 - - -
19/09:00pm - - - - - NNW 0 0 0 0 - - -
19/08:30pm - - - - - SSE 2 4 1 2 - - -
19/08:00pm - - - - - E 4 7 2 4 - - -
19/07:30pm - - - - - E 6 7 3 4 - - -
19/07:00pm - - - - - E 4 7 2 4 - - -
19/06:30pm - - - - - CALM 0 0 0 0 - - -
19/06:00pm - - - - - CALM 0 0 0 0 - - -
19/05:30pm - - - - - CALM 0 0 0 0 - - -
19/05:00pm - - - - - CALM 0 0 0 0 - - -
19/04:30pm - - - - - W 4 9 2 5 - - -
19/04:00pm - - - - - WNW 7 13 4 7 - - -
19/03:30pm - - - - - WNW 6 13 3 7 - - -
19/03:00pm - - - - - WNW 6 13 3 7 - - -
19/02:30pm - - - - - WNW 6 13 3 7 - - -
19/02:00pm - - - - - W 7 13 4 7 - - -
19/01:30pm - - - - - WNW 6 13 3 7 - - -
19/01:00pm - - - - - WNW 6 15 3 8 - - -
19/12:30pm - - - - - NW 7 17 4 9 - - -
19/12:00pm - - - - - NW 6 11 3 6 - - -
19/11:30am - - - - - NNW 7 11 4 6 - - -
19/11:00am - - - - - W 2 6 1 3 - - -
19/10:30am - - - - - N 2 9 1 5 - - -
19/10:00am - - - - - NNW 6 9 3 5 - - -
19/09:30am - - - - - SE 6 9 3 5 - - -
19/09:00am - - - - - ESE 7 11 4 6 - - -
19/08:30am - - - - - CALM 0 0 0 0 - - -
19/08:00am - - - - - CALM 0 2 0 1 - - -
19/07:30am - - - - - SSE 4 6 2 3 - - -
19/07:00am - - - - - S 4 6 2 3 - - -
19/06:30am - - - - - CALM 0 6 0 3 - - -
19/06:00am - - - - - CALM 0 2 0 1 - - -
19/05:30am - - - - - SSE 9 11 5 6 - - -
19/05:00am - - - - - SSE 13 15 7 8 - - -
19/04:30am - - - - - E 7 11 4 6 - - -
19/04:00am - - - - - ESE 9 11 5 6 - - -
19/03:30am - - - - - SSE 11 13 6 7 - - -
19/03:00am - - - - - SSE 13 15 7 8 - - -
19/02:30am - - - - - S 15 17 8 9 - - -
19/02:00am - - - - - ESE 7 9 4 5 - - -
19/01:30am - - - - - SE 11 17 6 9 - - -
19/01:00am - - - - - S 7 9 4 5 - - -
19/12:30am - - - - - S 7 9 4 5 - - -
19/12:00am - - - - - S 13 15 7 8 - - -
 
Date/Time
CST
Temp
°C
App
Temp
°C
Dew
Point
Rel
Hum
%
Delta-T
°C
Wind Press
QNH
hPa
Press
MSL
hPa
Rain
since 9 am
mm
Dir
 
Spd
km/h
Gust
km/h
Spd
kts
Gust
kts
18/11:30pm - - - - - S 13 15 7 8 - - -
18/11:00pm - - - - - S 15 20 8 11 - - -
18/10:30pm - - - - - S 11 15 6 8 - - -
18/10:00pm - - - - - S 11 13 6 7 - - -
18/09:30pm - - - - - S 11 13 6 7 - - -
18/09:00pm - - - - - SSE 11 11 6 6 - - -
18/08:30pm - - - - - S 9 11 5 6 - - -
18/08:00pm - - - - - S 11 13 6 7 - - -
18/07:30pm - - - - - S 11 13 6 7 - - -
18/07:00pm - - - - - S 13 15 7 8 - - -
18/06:30pm - - - - - S 15 17 8 9 - - -
18/06:00pm - - - - - S 11 13 6 7 - - -
18/05:30pm - - - - - S 17 20 9 11 - - -
18/05:00pm - - - - - S 22 32 12 17 - - -
18/04:30pm - - - - - S 17 24 9 13 - - -
18/04:00pm - - - - - S 26 33 14 18 - - -
18/03:30pm - - - - - S 22 33 12 18 - - -
18/03:00pm - - - - - S 28 35 15 19 - - -
18/02:30pm - - - - - S 30 39 16 21 - - -
18/02:00pm - - - - - S 22 37 12 20 - - -
18/01:30pm - - - - - S 17 26 9 14 - - -
18/01:00pm - - - - - S 28 41 15 22 - - -
18/12:30pm - - - - - S 28 39 15 21 - - -
18/12:00pm - - - - - S 20 35 11 19 - - -
18/11:30am - - - - - S 20 32 11 17 - - -
18/11:00am - - - - - S 22 33 12 18 - - -
18/10:30am - - - - - S 26 35 14 19 - - -
18/10:00am - - - - - S 30 39 16 21 - - -
18/09:30am - - - - - S 20 37 11 20 - - -
18/09:00am - - - - - S 15 24 8 13 - - -
18/08:30am - - - - - S 17 33 9 18 - - -
18/08:00am - - - - - S 13 22 7 12 - - -
18/07:30am - - - - - S 20 32 11 17 - - -
18/07:00am - - - - - S 13 22 7 12 - - -
18/06:30am - - - - - W 9 22 5 12 - - -
18/06:00am - - - - - WNW 15 28 8 15 - - -
18/05:30am - - - - - NW 13 24 7 13 - - -
18/05:00am - - - - - WNW 15 32 8 17 - - -
18/04:30am - - - - - WNW 11 24 6 13 - - -
18/04:00am - - - - - WNW 9 17 5 9 - - -
18/03:30am - - - - - W 9 19 5 10 - - -
18/03:00am - - - - - W 9 20 5 11 - - -
18/02:30am - - - - - W 11 26 6 14 - - -
18/02:00am - - - - - WNW 15 32 8 17 - - -
18/01:30am - - - - - WNW 17 30 9 16 - - -
18/01:00am - - - - - W 20 43 11 23 - - -
18/12:30am - - - - - NW 17 32 9 17 - - -
18/12:00am - - - - - NW 13 26 7 14 - - -
 
Date/Time
CST
Temp
°C
App
Temp
°C
Dew
Point
Rel
Hum
%
Delta-T
°C
Wind Press
QNH
hPa
Press
MSL
hPa
Rain
since 9 am
mm
Dir
 
Spd
km/h
Gust
km/h
Spd
kts
Gust
kts
17/11:30pm - - - - - NW 11 19 6 10 - - -
17/11:00pm - - - - - NW 9 17 5 9 - - -
17/10:30pm - - - - - NW 13 22 7 12 - - -
17/10:00pm - - - - - NW 17 26 9 14 - - -
17/09:30pm - - - - - NNW 13 19 7 10 - - -
17/09:00pm - - - - - NNW 9 15 5 8 - - -
17/08:30pm - - - - - NNW 9 15 5 8 - - -
17/08:00pm - - - - - NNW 9 17 5 9 - - -
17/07:30pm - - - - - NNW 7 11 4 6 - - -
17/07:00pm - - - - - N 6 9 3 5 - - -
17/06:30pm - - - - - N 7 11 4 6 - - -
17/06:00pm - - - - - N 6 9 3 5 - - -
17/05:30pm - - - - - NNW 7 9 4 5 - - -
17/05:00pm - - - - - NNW 7 15 4 8 - - -
17/04:30pm - - - - - NNW 11 17 6 9 - - -
17/04:00pm - - - - - NNW 9 15 5 8 - - -
17/03:30pm - - - - - NNW 9 15 5 8 - - -
17/03:00pm - - - - - NNW 9 15 5 8 - - -
17/02:30pm - - - - - NNW 9 17 5 9 - - -
17/02:00pm - - - - - NNW 9 17 5 9 - - -
17/01:30pm - - - - - NNW 7 17 4 9 - - -
17/01:00pm - - - - - NW 7 15 4 8 - - -
17/12:30pm - - - - - NW 7 15 4 8 - - -
17/12:00pm - - - - - NW 9 17 5 9 - - -
17/11:30am - - - - - NW 7 13 4 7 - - -
17/11:00am - - - - - NW 7 13 4 7 - - -
17/10:30am - - - - - NNW 9 15 5 8 - - -
17/10:00am - - - - - NNW 9 15 5 8 - - -
17/09:30am - - - - - NNW 6 7 3 4 - - -
17/09:00am - - - - - N 4 7 2 4 - - -
17/08:30am - - - - - N 4 6 2 3 - - -
17/08:00am - - - - - N 2 6 1 3 - - -
17/07:30am - - - - - N 4 6 2 3 - - -
17/07:00am - - - - - N 4 6 2 3 - - -
17/06:30am - - - - - NNW 6 9 3 5 - - -
17/06:00am - - - - - N 6 9 3 5 - - -
17/05:30am - - - - - N 6 11 3 6 - - -
17/05:00am - - - - - NNW 6 9 3 5 - - -
17/04:30am - - - - - NNW 6 7 3 4 - - -
17/04:00am - - - - - N 6 9 3 5 - - -
17/03:30am - - - - - NW 4 6 2 3 - - -
17/03:00am - - - - - WNW 4 6 2 3 - - -
17/02:30am - - - - - W 4 7 2 4 - - -
17/02:00am - - - - - WNW 4 7 2 4 - - -
17/01:30am - - - - - NW 6 9 3 5 - - -
17/01:00am - - - - - NW 6 9 3 5 - - -
17/12:30am - - - - - NW 7 11 4 6 - - -
17/12:00am - - - - - NW 6 9 3 5 - - -
 
Date/Time
CST
Temp
°C
App
Temp
°C
Dew
Point
Rel
Hum
%
Delta-T
°C
Wind Press
QNH
hPa
Press
MSL
hPa
Rain
since 9 am
mm
Dir
 
Spd
km/h
Gust
km/h
Spd
kts
Gust
kts
16/11:30pm - - - - - NW 6 9 3 5 - - -
16/11:00pm - - - - - NW 7 11 4 6 - - -
16/10:30pm - - - - - WNW 4 7 2 4 - - -
16/10:00pm - - - - - NW 4 6 2 3 - - -

Other Formats:

Comma delimited format used in spreadsheet applications
http://www.bom.gov.au/fwo/IDS60801/IDS60801.95679.axf

JavaScript Object Notation format (JSON) in row-major order
http://www.bom.gov.au/fwo/IDS60801/IDS60801.95679.json